Aviation Digital Data Service (ADDS)

Output produced by METARs form (0344 UTC 23 November 2017)
found at http://www.aviationweather.gov/adds/metars/
 
TAF MNBL 222100Z 2300/2324 09006KT 999 SCT017 
     FM231200 33004KT 6000 VCRA BKN016CB SCT060 
     FM232000 03008KT
       
TAF MNMG 222100Z 2300/2324 VRB04KT 5000 TSRA SCT020CB SCT070 
     BECMG 2309/2311 00000KT 9999 FEW022 
     FM232000 07008KT FEW024
       
TAF MNPC 222100Z 2300/2324 36004KT 5000 DZ/RA SCT016CB SCT090 
     BECMG 2311/2313 6000 HZ/VCRA FEW014TCU 
     FM232100 04008KT